Time;durP1;ratioP1;P1;durP2;ratioP2;P2;SDS_P1;SDS_P2;PMS_P1;PMS_P2;Temp;Humidity;BMP_temperature;BMP_pressure;BME280_temperature;BME280_humidity;BME280_pressure;Samples;Min_cycle;Max_cycle;Signal;HPM_P1;HPM_P2
2022/09/17 00:00:18;;;;;;;;;;;;;;;19.58;79.15;94422.44;5115799;28;1024;-55
2022/09/17 00:02:50;;;;;;;;;;;;;;;19.54;79.33;94418.56;5115549;28;1058;-54
2022/09/17 00:05:16;;;;;;;;;;;;;;;19.65;78.84;94428.59;5114562;28;1901;-55
2022/09/17 00:07:42;;;;;;;;;;;;;;;19.62;78.48;94425.50;5115559;28;1036;-55
2022/09/17 00:10:08;;;;;;;;;;;;;;;19.47;79.23;94428.69;5115455;28;1110;-55
2022/09/17 00:12:35;;;;;;;;;;;;;;;19.55;79.02;94412.06;5115248;28;1257;-55
2022/09/17 00:15:01;;;;;;;;;;;;;;;19.61;78.58;94413.00;5114101;28;1111;-54
2022/09/17 00:17:27;;;;;;;;;;;;;;;19.64;78.52;94413.34;5115240;28;984;-54
2022/09/17 00:19:53;;;;;;;;;;;;;;;19.55;78.70;94403.09;5113941;28;1099;-54
2022/09/17 00:22:19;;;;;;;;;;;;;;;19.52;78.86;94399.00;5098011;28;2844;-54
2022/09/17 00:24:45;;;;;;;;;;;;;;;19.53;78.91;94406.03;5094741;28;1983;-54
2022/09/17 00:27:11;;;;;;;;;;;;;;;19.37;78.81;94401.31;5094857;28;1248;-54
2022/09/17 00:29:37;;;;;;;;;;;;;;;19.24;79.10;94408.59;5094583;28;956;-55
2022/09/17 00:32:04;;;;;;;;;;;;;;;19.18;80.08;94419.53;5094751;28;1072;-55
2022/09/17 00:34:30;;;;;;;;;;;;;;;19.30;79.75;94429.34;5093252;28;1036;-55
2022/09/17 00:36:56;;;;;;;;;;;;;;;19.23;79.47;94420.50;5093625;28;953;-54
2022/09/17 00:39:22;;;;;;;;;;;;;;;19.20;79.92;94402.00;5094326;28;1098;-54
2022/09/17 00:41:48;;;;;;;;;;;;;;;19.11;80.46;94409.63;5094639;28;1099;-55
2022/09/17 00:44:33;;;;;;;;;;;;;;;19.17;80.17;94383.50;5093031;28;1902;-54
2022/09/17 00:46:59;;;;;;;;;;;;;;;19.19;79.96;94389.50;5094466;28;1059;-55
2022/09/17 00:49:27;;;;;;;;;;;;;;;19.17;79.76;94391.63;5094062;28;1025;-54
2022/09/17 00:51:56;;;;;;;;;;;;;;;19.22;79.65;94402.59;5094370;28;1043;-55
2022/09/17 00:54:22;;;;;;;;;;;;;;;19.19;79.60;94415.78;5102839;28;1278;-54
2022/09/17 00:56:50;;;;;;;;;;;;;;;19.10;79.77;94424.25;5113509;28;1051;-54
2022/09/17 00:59:17;;;;;;;;;;;;;;;19.11;79.96;94427.78;5114157;27;1035;-54
2022/09/17 01:01:43;;;;;;;;;;;;;;;19.20;79.64;94433.69;5114183;28;1032;-55
2022/09/17 01:04:19;;;;;;;;;;;;;;;19.18;79.14;94441.22;5113324;28;1122;-54
2022/09/17 01:06:45;;;;;;;;;;;;;;;19.15;79.38;94447.13;5114505;28;1143;-54
2022/09/17 01:09:30;;;;;;;;;;;;;;;19.20;79.17;94445.38;5114201;28;1028;-54
2022/09/17 01:12:15;;;;;;;;;;;;;;;19.15;79.16;94430.84;5114636;28;1048;-54
2022/09/17 01:14:41;;;;;;;;;;;;;;;18.99;79.87;94443.16;5114153;28;1041;-55
2022/09/17 01:17:16;;;;;;;;;;;;;;;19.03;79.53;94439.78;5114397;28;968;-54
2022/09/17 01:19:54;;;;;;;;;;;;;;;19.05;79.72;94442.25;5147547;27;1546;-54
2022/09/17 01:22:21;;;;;;;;;;;;;;;19.24;78.77;94451.97;5097016;28;2923;-54
2022/09/17 01:24:49;;;;;;;;;;;;;;;19.36;78.33;94462.00;5093790;28;1914;-54
2022/09/17 01:27:15;;;;;;;;;;;;;;;19.23;78.67;94457.63;5092680;28;1579;-54
2022/09/17 01:30:01;;;;;;;;;;;;;;;19.28;78.78;94457.75;5094112;28;1523;-54
2022/09/17 01:32:29;;;;;;;;;;;;;;;19.35;78.50;94453.06;5083144;28;1190;-54
2022/09/17 01:34:58;;;;;;;;;;;;;;;19.31;78.88;94460.81;5093781;28;1029;-54
2022/09/17 01:37:44;;;;;;;;;;;;;;;19.27;78.33;94450.66;5092500;28;1467;-54
2022/09/17 01:40:13;;;;;;;;;;;;;;;19.33;78.48;94457.88;5093352;28;1117;-54
2022/09/17 01:42:48;;;;;;;;;;;;;;;19.30;79.27;94464.56;5093615;28;1047;-55
2022/09/17 01:45:18;;;;;;;;;;;;;;;19.35;79.43;94468.47;5093099;28;1922;-55
2022/09/17 01:48:07;;;;;;;;;;;;;;;19.31;80.78;94468.09;5093723;28;1054;-54
2022/09/17 01:50:40;;;;;;;;;;;;;;;19.35;80.01;94457.63;5085157;28;1186;-54
2022/09/17 01:53:08;;;;;;;;;;;;;;;19.26;80.14;94462.56;5093485;28;1075;-55
2022/09/17 01:55:36;;;;;;;;;;;;;;;19.33;80.08;94470.59;5144738;27;1240;-54
2022/09/17 01:58:24;;;;;;;;;;;;;;;19.30;80.52;94467.28;5113796;28;1048;-54
2022/09/17 02:00:54;;;;;;;;;;;;;;;19.34;79.98;94462.22;5113562;28;1071;-54
2022/09/17 02:03:25;;;;;;;;;;;;;;;19.26;80.73;94470.72;5113558;28;1028;-54
2022/09/17 02:05:54;;;;;;;;;;;;;;;19.31;80.50;94466.25;5113477;28;1992;-54
2022/09/17 02:08:23;;;;;;;;;;;;;;;19.29;80.31;94438.56;5113593;28;1099;-55
2022/09/17 02:10:55;;;;;;;;;;;;;;;19.34;79.74;94424.28;5113681;28;976;-54
2022/09/17 02:13:25;;;;;;;;;;;;;;;19.47;79.12;94424.06;5115862;28;1096;-55
2022/09/17 02:15:56;;;;;;;;;;;;;;;19.47;79.61;94437.63;5118053;28;1031;-54
2022/09/17 02:18:42;;;;;;;;;;;;;;;19.36;80.21;94427.59;5117727;27;1044;-55
2022/09/17 02:21:15;;;;;;;;;;;;;;;19.44;80.01;94423.72;5110339;28;2903;-55
2022/09/17 02:24:04;;;;;;;;;;;;;;;19.30;80.71;94415.78;5097343;28;2097;-53
2022/09/17 02:26:31;;;;;;;;;;;;;;;19.43;80.20;94411.25;5088765;28;1906;-56
2022/09/17 02:29:00;;;;;;;;;;;;;;;19.50;79.85;94395.66;5097123;28;1118;-55
2022/09/17 02:31:26;;;;;;;;;;;;;;;19.53;79.64;94394.38;5097016;28;969;-55
2022/09/17 02:33:56;;;;;;;;;;;;;;;19.58;79.80;94392.63;5097310;28;1035;-55
2022/09/17 02:36:23;;;;;;;;;;;;;;;19.58;79.72;94387.19;5096967;28;985;-55
2022/09/17 02:39:00;;;;;;;;;;;;;;;19.67;79.18;94395.78;5097092;28;1024;-55
2022/09/17 02:41:43;;;;;;;;;;;;;;;19.53;79.55;94392.50;5096573;28;1087;-55
2022/09/17 02:44:15;;;;;;;;;;;;;;;19.54;79.31;94380.59;5096929;28;1056;-56
2022/09/17 02:47:00;;;;;;;;;;;;;;;19.48;79.90;94376.94;5095435;28;1967;-55
2022/09/17 02:49:53;;;;;;;;;;;;;;;19.55;79.18;94384.13;5096711;28;1665;-56
2022/09/17 02:52:19;;;;;;;;;;;;;;;19.50;79.46;94391.09;5129976;27;1464;-56
2022/09/17 02:54:54;;;;;;;;;;;;;;;19.49;79.96;94394.03;5108424;28;1165;-55
2022/09/17 02:57:30;;;;;;;;;;;;;;;19.48;80.04;94395.06;5116879;28;1031;-55
2022/09/17 03:00:11;;;;;;;;;;;;;;;19.43;80.04;94384.94;5099027;28;1510;-55
2022/09/17 03:02:42;;;;;;;;;;;;;;;19.39;80.18;94377.50;5117149;28;965;-55
2022/09/17 03:05:09;;;;;;;;;;;;;;;19.38;80.61;94365.84;5115485;28;1901;-55
2022/09/17 03:07:36;;;;;;;;;;;;;;;19.35;80.45;94352.78;5098968;28;1471;-55
2022/09/17 03:10:03;;;;;;;;;;;;;;;19.34;80.71;94336.75;5115600;28;1638;-55
2022/09/17 03:12:30;;;;;;;;;;;;;;;19.39;80.54;94340.41;5115462;28;1704;-56
2022/09/17 03:14:56;;;;;;;;;;;;;;;19.53;80.00;94345.59;5115627;28;988;-55
2022/09/17 03:17:23;;;;;;;;;;;;;;;19.57;79.79;94339.44;5116511;28;1885;-55
2022/09/17 03:19:49;;;;;;;;;;;;;;;19.46;80.46;94338.41;5115735;28;1498;-55
2022/09/17 03:22:16;;;;;;;;;;;;;;;19.47;80.80;94344.63;5116367;28;1102;-56
2022/09/17 03:24:42;;;;;;;;;;;;;;;19.41;80.98;94343.69;5116117;28;1922;-56
2022/09/17 03:27:09;;;;;;;;;;;;;;;19.45;80.90;94347.59;5115385;28;1529;-55
2022/09/17 03:29:36;;;;;;;;;;;;;;;19.39;81.56;94331.41;5115363;28;1957;-57
2022/09/17 03:32:02;;;;;;;;;;;;;;;19.27;82.03;94337.69;5098476;28;1586;-56
2022/09/17 03:34:29;;;;;;;;;;;;;;;19.39;81.31;94339.56;5116303;28;1032;-56
2022/09/17 03:36:55;;;;;;;;;;;;;;;19.38;81.46;94333.31;5116147;28;1044;-55
2022/09/17 03:39:21;;;;;;;;;;;;;;;19.42;81.24;94330.97;5116201;28;1040;-55
2022/09/17 03:41:47;;;;;;;;;;;;;;;19.47;81.17;94320.25;5116112;28;1138;-55
2022/09/17 03:44:14;;;;;;;;;;;;;;;19.50;81.34;94317.03;5116156;28;1103;-55
2022/09/17 03:46:40;;;;;;;;;;;;;;;19.49;81.67;94304.56;5114654;28;1910;-55
2022/09/17 03:49:07;;;;;;;;;;;;;;;19.51;82.06;94300.53;5114962;28;1036;-55
2022/09/17 03:51:33;;;;;;;;;;;;;;;19.52;81.93;94290.56;5115994;28;976;-55
2022/09/17 03:54:01;;;;;;;;;;;;;;;19.55;82.69;94300.09;5116063;28;1153;-55
2022/09/17 03:56:27;;;;;;;;;;;;;;;19.43;82.99;94300.09;5115664;28;1119;-55
2022/09/17 03:59:00;;;;;;;;;;;;;;;19.29;83.33;94302.19;5115843;28;1079;-55
2022/09/17 04:01:26;;;;;;;;;;;;;;;19.39;82.55;94307.03;5115650;28;1044;-54
2022/09/17 04:03:53;;;;;;;;;;;;;;;19.43;82.85;94319.06;5116197;28;1040;-55
2022/09/17 04:06:19;;;;;;;;;;;;;;;19.49;82.71;94323.53;5114398;28;2013;-54
2022/09/17 04:08:45;;;;;;;;;;;;;;;19.38;83.74;94340.63;5115858;28;1063;-54
2022/09/17 04:11:11;;;;;;;;;;;;;;;19.36;83.84;94367.16;5114322;28;1186;-54
2022/09/17 04:13:38;;;;;;;;;;;;;;;19.33;83.67;94378.44;5115308;28;1080;-54
2022/09/17 04:16:04;;;;;;;;;;;;;;;19.28;83.65;94382.69;5114558;28;1159;-55
2022/09/17 04:18:30;;;;;;;;;;;;;;;19.27;83.49;94385.63;5115436;28;1049;-54
2022/09/17 04:20:56;;;;;;;;;;;;;;;19.32;83.44;94377.63;5115522;28;1844;-54
2022/09/17 04:23:22;;;;;;;;;;;;;;;19.40;82.97;94395.44;5115308;28;1015;-54
2022/09/17 04:25:48;;;;;;;;;;;;;;;19.42;82.83;94401.44;5115277;28;1984;-54
2022/09/17 04:28:14;;;;;;;;;;;;;;;19.29;83.54;94388.94;5114993;28;1083;-54
2022/09/17 04:30:42;;;;;;;;;;;;;;;19.19;84.33;94396.81;5115347;28;1138;-55
2022/09/17 04:33:08;;;;;;;;;;;;;;;19.29;83.67;94397.91;5115278;28;1055;-54
2022/09/17 04:35:34;;;;;;;;;;;;;;;19.40;83.38;94417.09;5113177;28;1255;-55
2022/09/17 04:38:00;;;;;;;;;;;;;;;19.48;82.91;94424.88;5115014;28;1118;-55
2022/09/17 04:40:27;;;;;;;;;;;;;;;19.44;83.85;94415.56;5114083;28;1510;-58
2022/09/17 04:43:02;;;;;;;;;;;;;;;19.43;83.54;94416.66;5113653;28;996;-55
2022/09/17 04:45:29;;;;;;;;;;;;;;;19.44;83.25;94396.59;5116596;27;2882;-55
2022/09/17 04:47:56;;;;;;;;;;;;;;;19.39;83.74;94383.78;5093468;28;2072;-55
2022/09/17 04:50:22;;;;;;;;;;;;;;;19.43;83.34;94390.38;5103407;28;3285;-54
2022/09/17 04:52:48;;;;;;;;;;;;;;;19.51;83.70;94381.88;5114647;28;1075;-58
2022/09/17 04:55:15;;;;;;;;;;;;;;;19.63;83.55;94368.31;5114497;28;1294;-55
2022/09/17 04:57:48;;;;;;;;;;;;;;;19.73;83.70;94381.34;5114515;28;1918;-55
2022/09/17 05:00:14;;;;;;;;;;;;;;;19.79;83.13;94371.44;5114593;28;1020;-55
2022/09/17 05:02:42;;;;;;;;;;;;;;;19.77;83.63;94368.09;5114277;28;3273;-55
2022/09/17 05:05:08;;;;;;;;;;;;;;;19.79;83.93;94360.56;5114633;27;1983;-55
2022/09/17 05:07:36;;;;;;;;;;;;;;;19.85;83.70;94373.19;5114074;28;1039;-55
2022/09/17 05:10:03;;;;;;;;;;;;;;;19.91;83.56;94377.66;5113217;28;1008;-55
2022/09/17 05:12:29;;;;;;;;;;;;;;;19.91;84.25;94366.78;5113933;28;1094;-55
2022/09/17 05:14:55;;;;;;;;;;;;;;;19.97;83.58;94381.28;5114581;28;917;-55
2022/09/17 05:17:21;;;;;;;;;;;;;;;20.04;84.05;94390.13;5112714;28;1092;-56
2022/09/17 05:19:48;;;;;;;;;;;;;;;20.06;84.14;94390.72;5113357;28;1503;-55
2022/09/17 05:22:14;;;;;;;;;;;;;;;20.07;83.82;94404.06;5114077;28;1028;-54
2022/09/17 05:24:40;;;;;;;;;;;;;;;20.14;84.68;94389.53;5147074;27;1987;-54
2022/09/17 05:27:07;;;;;;;;;;;;;;;20.19;83.89;94387.75;5114422;28;999;-54
2022/09/17 05:29:33;;;;;;;;;;;;;;;20.26;83.97;94387.59;5113964;28;1032;-58
2022/09/17 05:32:00;;;;;;;;;;;;;;;20.33;84.01;94399.16;5096386;28;1839;-55
2022/09/17 05:34:26;;;;;;;;;;;;;;;20.38;84.14;94395.72;5096057;28;972;-54
2022/09/17 05:36:53;;;;;;;;;;;;;;;20.40;83.13;94397.13;5114181;28;1070;-53
2022/09/17 05:39:24;;;;;;;;;;;;;;;20.41;83.38;94400.66;5084553;28;2859;-55
2022/09/17 05:41:51;;;;;;;;;;;;;;;20.44;83.29;94395.56;5093808;28;988;-55
2022/09/17 05:44:18;;;;;;;;;;;;;;;20.42;84.55;94405.84;5093562;28;1520;-55
2022/09/17 05:46:45;;;;;;;;;;;;;;;20.44;84.96;94389.34;5093274;28;1906;-55
2022/09/17 05:49:11;;;;;;;;;;;;;;;20.46;85.34;94393.44;5093467;28;964;-55
2022/09/17 05:51:38;;;;;;;;;;;;;;;20.45;86.38;94396.38;5112358;28;1173;-55
2022/09/17 05:54:05;;;;;;;;;;;;;;;20.44;86.30;94398.28;5112440;28;1173;-55
2022/09/17 05:56:31;;;;;;;;;;;;;;;20.47;85.91;94399.72;5113752;28;1040;-55
2022/09/17 05:58:58;;;;;;;;;;;;;;;20.51;86.13;94409.03;5112270;28;1353;-54
2022/09/17 06:01:24;;;;;;;;;;;;;;;20.52;86.60;94415.28;5112356;28;1107;-54
2022/09/17 06:03:51;;;;;;;;;;;;;;;20.51;86.95;94405.47;5095789;28;1432;-54
2022/09/17 06:06:17;;;;;;;;;;;;;;;20.53;86.98;94404.19;5112256;28;1980;-54
2022/09/17 06:08:44;;;;;;;;;;;;;;;20.61;86.93;94403.00;5113628;28;2507;-54
2022/09/17 06:11:11;;;;;;;;;;;;;;;20.67;87.09;94407.47;5112687;28;1673;-54
2022/09/17 06:13:37;;;;;;;;;;;;;;;20.79;87.31;94401.97;5113102;28;1096;-58
2022/09/17 06:16:04;;;;;;;;;;;;;;;20.88;87.50;94391.56;5112390;28;1040;-53
2022/09/17 06:18:31;;;;;;;;;;;;;;;20.93;86.03;94384.31;5112249;28;993;-58
2022/09/17 06:20:58;;;;;;;;;;;;;;;21.06;86.46;94370.41;5113606;28;1024;-56
2022/09/17 06:23:24;;;;;;;;;;;;;;;21.13;86.43;94374.88;5113178;28;1024;-54
2022/09/17 06:25:52;;;;;;;;;;;;;;;21.20;86.83;94367.38;5113671;28;1901;-55
2022/09/17 06:28:18;;;;;;;;;;;;;;;21.24;86.40;94361.19;5113604;28;976;-53
2022/09/17 06:30:44;;;;;;;;;;;;;;;21.26;86.42;94364.47;5112554;28;1491;-55
2022/09/17 06:33:11;;;;;;;;;;;;;;;21.38;85.81;94374.47;5112255;28;1124;-53
2022/09/17 06:35:37;;;;;;;;;;;;;;;21.47;85.49;94375.72;5113556;28;1051;-55
2022/09/17 06:38:04;;;;;;;;;;;;;;;21.50;85.00;94358.94;5112927;28;2855;-58
2022/09/17 06:40:30;;;;;;;;;;;;;;;21.52;83.91;94353.25;5112794;28;1044;-55
2022/09/17 06:42:58;;;;;;;;;;;;;;;21.73;82.94;94370.69;5112255;28;1087;-54
2022/09/17 06:45:25;;;;;;;;;;;;;;;21.94;82.29;94355.47;5112501;28;1923;-54
2022/09/17 06:47:51;;;;;;;;;;;;;;;22.18;82.10;94342.47;5112610;28;1057;-54
2022/09/17 06:50:17;;;;;;;;;;;;;;;22.39;80.42;94328.03;5129102;27;1832;-54
2022/09/17 06:52:48;;;;;;;;;;;;;;;22.67;79.59;94326.16;5113569;28;968;-54
2022/09/17 06:55:14;;;;;;;;;;;;;;;22.85;78.26;94324.16;5112936;28;1157;-54
2022/09/17 06:57:41;;;;;;;;;;;;;;;23.07;78.30;94332.28;5113216;28;1024;-54
2022/09/17 07:00:07;;;;;;;;;;;;;;;23.16;76.83;94347.06;5115453;28;977;-54
2022/09/17 07:02:34;;;;;;;;;;;;;;;23.10;77.62;94353.56;5116869;28;1039;-54
2022/09/17 07:05:00;;;;;;;;;;;;;;;23.06;77.05;94355.19;5116535;28;1990;-54
2022/09/17 07:07:26;;;;;;;;;;;;;;;22.79;78.13;94343.16;5115459;28;1047;-55
2022/09/17 07:09:52;;;;;;;;;;;;;;;22.61;77.75;94338.06;5116681;28;1127;-54
2022/09/17 07:12:19;;;;;;;;;;;;;;;22.42;79.16;94337.59;5116692;28;1108;-54
2022/09/17 07:14:46;;;;;;;;;;;;;;;22.23;80.21;94339.78;5115470;28;925;-54
2022/09/17 07:17:15;;;;;;;;;;;;;;;22.11;80.47;94322.75;5116672;28;1092;-54
2022/09/17 07:19:41;;;;;;;;;;;;;;;22.10;80.81;94327.41;5116364;28;1098;-54
2022/09/17 07:22:07;;;;;;;;;;;;;;;22.25;80.46;94332.22;5116932;28;1023;-54
2022/09/17 07:24:33;;;;;;;;;;;;;;;22.35;79.69;94339.69;5116445;27;1964;-55
2022/09/17 07:27:00;;;;;;;;;;;;;;;22.69;77.73;94326.72;5116636;28;971;-54
2022/09/17 07:29:26;;;;;;;;;;;;;;;22.72;77.59;94333.56;5116407;28;1043;-54
2022/09/17 07:31:53;;;;;;;;;;;;;;;22.64;78.40;94329.38;5116410;28;1238;-54
2022/09/17 07:34:19;;;;;;;;;;;;;;;22.44;78.75;94329.16;5116324;28;1039;-54
2022/09/17 07:36:45;;;;;;;;;;;;;;;22.32;79.72;94334.75;5116390;28;1039;-54
2022/09/17 07:39:12;;;;;;;;;;;;;;;22.29;80.05;94338.81;5106100;28;2836;-54
2022/09/17 07:41:38;;;;;;;;;;;;;;;22.31;80.49;94331.22;5095534;28;1079;-54
2022/09/17 07:44:06;;;;;;;;;;;;;;;22.48;80.29;94319.41;5095881;28;1044;-55
2022/09/17 07:46:33;;;;;;;;;;;;;;;24.53;71.82;94334.59;5095531;28;1997;-55
2022/09/17 07:48:59;;;;;;;;;;;;;;;24.48;70.85;94329.09;5094457;28;1055;-55
2022/09/17 07:51:27;;;;;;;;;;;;;;;24.21;72.05;94324.63;5095556;28;1047;-54
2022/09/17 07:53:54;;;;;;;;;;;;;;;24.99;68.07;94318.31;5100270;28;1161;-55
2022/09/17 07:56:20;;;;;;;;;;;;;;;24.68;68.71;94314.69;5115894;28;1040;-54
2022/09/17 07:58:47;;;;;;;;;;;;;;;26.92;61.21;94309.13;5116093;28;1188;-55
2022/09/17 08:01:16;;;;;;;;;;;;;;;26.47;61.35;94292.63;5115656;28;1092;-55
2022/09/17 08:03:46;;;;;;;;;;;;;;;25.16;65.83;94289.88;5116024;28;1045;-55
2022/09/17 08:06:14;;;;;;;;;;;;;;;24.23;71.28;94284.19;5115916;28;1984;-56
2022/09/17 08:08:41;;;;;;;;;;;;;;;23.78;72.73;94293.78;5115862;27;1996;-55
2022/09/17 08:11:09;;;;;;;;;;;;;;;23.54;73.80;94282.44;5115595;27;1988;-55
2022/09/17 08:13:35;;;;;;;;;;;;;;;23.32;74.36;94277.16;5114405;28;1245;-55
2022/09/17 08:16:04;;;;;;;;;;;;;;;23.22;74.64;94285.22;5117975;27;3055;-55
2022/09/17 08:18:30;;;;;;;;;;;;;;;23.13;74.96;94290.38;5094964;28;1048;-55
2022/09/17 08:20:58;;;;;;;;;;;;;;;23.02;75.21;94291.31;5102522;28;3206;-55
2022/09/17 08:23:25;;;;;;;;;;;;;;;22.91;76.20;94293.13;5115529;28;1048;-55
2022/09/17 08:25:55;;;;;;;;;;;;;;;22.79;75.38;94299.56;5115227;28;2003;-55
2022/09/17 08:28:22;;;;;;;;;;;;;;;22.73;76.33;94300.59;5114346;28;1581;-55
2022/09/17 08:30:49;;;;;;;;;;;;;;;22.64;76.90;94310.31;5104626;27;1258;-55
2022/09/17 08:51:34;;;;;;;;;;;;;;;22.43;78.87;94331.06;4837333;22;4484;-60
2022/09/17 08:54:01;;;;;;;;;;;;;;;22.37;79.41;94340.25;5049671;28;1492;-59
2022/09/17 08:56:31;;;;;;;;;;;;;;;22.35;80.16;94345.97;5053873;28;1065;-59
2022/09/17 08:59:03;;;;;;;;;;;;;;;22.28;80.80;94358.94;5053769;28;1244;-59
2022/09/17 09:01:30;;;;;;;;;;;;;;;22.18;81.32;94377.84;5053984;28;1028;-59
2022/09/17 09:04:20;;;;;;;;;;;;;;;22.16;82.85;94388.16;5054065;28;1044;-59
2022/09/17 09:07:07;;;;;;;;;;;;;;;22.12;83.63;94411.50;5036516;28;1902;-59
2022/09/17 09:09:38;;;;;;;;;;;;;;;22.03;83.21;94425.56;5035389;28;3057;-59
2022/09/17 09:12:17;;;;;;;;;;;;;;;22.00;84.08;94423.31;5053389;28;1637;-59
2022/09/17 09:14:53;;;;;;;;;;;;;;;21.98;85.70;94414.56;5053452;28;1056;-59
2022/09/17 09:17:24;;;;;;;;;;;;;;;21.98;86.06;94430.91;5051283;28;1039;-57
2022/09/17 09:19:53;;;;;;;;;;;;;;;21.98;85.53;94428.19;5053763;28;1530;-59
2022/09/17 09:22:28;;;;;;;;;;;;;;;21.95;85.47;94425.97;5053140;28;1021;-59
2022/09/17 09:25:03;;;;;;;;;;;;;;;21.92;86.94;94428.38;5043360;28;2908;-59
2022/09/17 09:27:38;;;;;;;;;;;;;;;21.84;89.43;94418.75;5053618;28;1034;-61
2022/09/17 09:30:12;;;;;;;;;;;;;;;21.84;89.16;94394.25;5052664;28;1527;-59
2022/09/17 09:32:39;;;;;;;;;;;;;;;21.78;88.16;94371.59;5053940;28;1769;-59
2022/09/17 09:35:17;;;;;;;;;;;;;;;21.67;89.25;94364.34;5053523;28;1180;-59
2022/09/17 09:38:04;;;;;;;;;;;;;;;21.52;90.07;94373.09;5052137;28;1555;-59
2022/09/17 09:40:43;;;;;;;;;;;;;;;21.56;88.28;94387.03;5053708;28;1251;-59
2022/09/17 09:43:19;;;;;;;;;;;;;;;21.52;88.76;94391.31;5053673;28;1629;-59
2022/09/17 09:46:02;;;;;;;;;;;;;;;21.52;89.94;94388.59;5043210;28;2850;-59
2022/09/17 09:48:28;;;;;;;;;;;;;;;21.54;89.12;94391.88;5033177;28;1044;-59
2022/09/17 09:51:01;;;;;;;;;;;;;;;21.57;88.72;94389.50;5050889;28;1200;-59
2022/09/17 09:53:35;;;;;;;;;;;;;;;21.58;88.17;94382.97;5050943;28;1091;-59
2022/09/17 09:56:09;;;;;;;;;;;;;;;21.48;87.89;94371.13;5051728;28;1095;-58
2022/09/17 09:58:39;;;;;;;;;;;;;;;21.38;86.94;94361.72;5042452;28;1323;-59
2022/09/17 10:01:15;;;;;;;;;;;;;;;21.30;87.48;94334.09;5032231;28;1040;-59
2022/09/17 10:03:44;;;;;;;;;;;;;;;21.09;87.32;94301.16;5032996;28;1961;-62
2022/09/17 10:06:11;;;;;;;;;;;;;;;21.05;87.64;94289.94;5033223;28;1989;-58
2022/09/17 10:08:39;;;;;;;;;;;;;;;20.93;87.16;94245.75;5033141;28;1169;-58
2022/09/17 10:11:11;;;;;;;;;;;;;;;20.89;87.34;94216.59;5033170;28;1967;-58
2022/09/17 10:13:38;;;;;;;;;;;;;;;20.84;88.50;94207.31;5032327;28;1119;-58
2022/09/17 10:16:18;;;;;;;;;;;;;;;20.97;88.87;94218.91;5033426;28;1028;-58
2022/09/17 10:18:47;;;;;;;;;;;;;;;21.14;88.33;94232.47;5032979;28;1035;-58
2022/09/17 10:21:20;;;;;;;;;;;;;;;21.29;88.88;94240.03;5033190;28;934;-58
2022/09/17 10:23:47;;;;;;;;;;;;;;;21.41;89.80;94230.69;5033120;28;1068;-59
2022/09/17 10:26:24;;;;;;;;;;;;;;;21.39;90.16;94245.63;5033147;28;1906;-59
2022/09/17 10:28:53;;;;;;;;;;;;;;;21.34;89.98;94264.56;5049093;28;2915;-59
2022/09/17 10:31:21;;;;;;;;;;;;;;;21.47;88.94;94282.47;5051962;28;1007;-59
2022/09/17 10:33:57;;;;;;;;;;;;;;;21.39;88.98;94289.13;5053304;28;1126;-59
2022/09/17 10:36:37;;;;;;;;;;;;;;;21.47;88.21;94299.59;5056507;28;1051;-59
2022/09/17 10:39:19;;;;;;;;;;;;;;;21.53;87.04;94312.22;5056081;28;984;-59
2022/09/17 10:41:53;;;;;;;;;;;;;;;21.49;87.47;94310.22;5056938;28;1272;-59
2022/09/17 10:44:21;;;;;;;;;;;;;;;21.43;88.05;94320.16;5056587;28;1540;-59
2022/09/17 10:46:48;;;;;;;;;;;;;;;21.42;87.37;94329.41;5056546;28;1967;-59
2022/09/17 10:49:35;;;;;;;;;;;;;;;21.45;87.39;94339.81;5055287;28;1716;-59
2022/09/17 10:52:12;;;;;;;;;;;;;;;21.41;86.54;94344.06;5055250;28;1567;-59
2022/09/17 10:54:56;;;;;;;;;;;;;;;21.33;86.36;94347.22;5055947;28;1278;-59
2022/09/17 10:57:37;;;;;;;;;;;;;;;21.23;86.97;94354.13;5056541;28;1039;-59
2022/09/17 11:00:06;;;;;;;;;;;;;;;21.19;87.12;94352.97;5036598;28;1095;-59
2022/09/17 11:02:54;;;;;;;;;;;;;;;21.14;86.76;94355.59;5036494;28;1052;-58
2022/09/17 11:05:39;;;;;;;;;;;;;;;21.12;87.89;94373.22;5036528;28;1988;-59
2022/09/17 11:08:28;;;;;;;;;;;;;;;21.06;88.50;94373.13;5035355;28;1903;-59
2022/09/17 11:11:00;;;;;;;;;;;;;;;21.11;88.52;94358.78;5036497;28;940;-59
2022/09/17 11:13:42;;;;;;;;;;;;;;;21.18;87.33;94355.94;5035240;28;1684;-59
2022/09/17 11:16:27;;;;;;;;;;;;;;;21.05;87.44;94343.47;5036580;28;1040;-59
2022/09/17 11:18:56;;;;;;;;;;;;;;;20.95;89.11;94329.75;5036024;28;1040;-59
2022/09/17 11:21:38;;;;;;;;;;;;;;;21.00;88.04;94332.53;5036192;28;1119;-58
2022/09/17 11:24:18;;;;;;;;;;;;;;;21.09;88.05;94308.50;5035949;28;917;-59
2022/09/17 11:26:52;;;;;;;;;;;;;;;21.14;88.92;94301.25;5036033;28;1981;-59
2022/09/17 11:29:27;;;;;;;;;;;;;;;21.25;87.66;94321.25;5036097;28;978;-59
2022/09/17 11:32:06;;;;;;;;;;;;;;;21.31;88.27;94322.97;5036049;28;946;-59
2022/09/17 11:34:53;;;;;;;;;;;;;;;21.36;87.60;94324.94;5034630;28;1019;-59
2022/09/17 11:37:25;;;;;;;;;;;;;;;21.39;88.80;94308.97;5035932;28;1891;-59
2022/09/17 11:39:52;;;;;;;;;;;;;;;21.43;88.10;94303.84;5035746;28;966;-59
2022/09/17 11:42:21;;;;;;;;;;;;;;;21.45;86.01;94310.72;5035821;28;1048;-59
2022/09/17 11:44:53;;;;;;;;;;;;;;;21.50;86.49;94307.25;5035062;28;1989;-59
2022/09/17 11:47:21;;;;;;;;;;;;;;;21.48;85.84;94320.28;5035684;28;962;-59
2022/09/17 11:49:51;;;;;;;;;;;;;;;21.48;86.19;94323.00;5035454;28;1245;-59
2022/09/17 11:52:18;;;;;;;;;;;;;;;21.57;85.87;94298.91;5035652;28;1099;-59
2022/09/17 11:55:04;;;;;;;;;;;;;;;21.63;84.33;94308.81;5035343;28;1896;-59
2022/09/17 11:57:34;;;;;;;;;;;;;;;21.61;84.46;94327.28;5035934;28;1276;-59
2022/09/17 12:00:07;;;;;;;;;;;;;;;21.61;84.88;94330.81;5055084;28;962;-59
2022/09/17 12:02:47;;;;;;;;;;;;;;;21.60;85.93;94320.16;5055589;28;1058;-59
2022/09/17 12:05:23;;;;;;;;;;;;;;;21.60;86.11;94333.78;5053878;28;1898;-59
2022/09/17 12:08:05;;;;;;;;;;;;;;;21.59;86.33;94330.25;5055247;28;1606;-59
2022/09/17 12:10:50;;;;;;;;;;;;;;;21.52;87.38;94335.03;5055004;28;1181;-59
2022/09/17 12:13:31;;;;;;;;;;;;;;;21.48;87.96;94306.69;5054206;28;1048;-59
2022/09/17 12:16:05;;;;;;;;;;;;;;;21.43;88.47;94307.38;5054895;28;964;-59
2022/09/17 12:18:41;;;;;;;;;;;;;;;21.48;88.31;94301.25;5054983;28;1060;-59
2022/09/17 12:21:09;;;;;;;;;;;;;;;21.37;89.10;94292.06;5055154;28;1027;-59
2022/09/17 12:24:04;;;;;;;;;;;;;;;21.38;89.83;94301.03;5053736;28;1095;-59
2022/09/17 12:26:49;;;;;;;;;;;;;;;21.45;88.93;94299.00;5050082;28;1992;-59
2022/09/17 12:29:34;;;;;;;;;;;;;;;21.49;88.19;94302.88;5054622;28;1133;-59
2022/09/17 12:32:18;;;;;;;;;;;;;;;21.56;88.32;94292.66;5054696;28;1040;-59
2022/09/17 12:35:17;;;;;;;;;;;;;;;21.66;88.00;94294.69;5053331;28;1044;-59
2022/09/17 12:37:58;;;;;;;;;;;;;;;21.67;87.69;94282.75;5042626;28;1233;-59
2022/09/17 12:40:24;;;;;;;;;;;;;;;21.61;88.09;94272.88;5054451;28;1145;-59
2022/09/17 12:43:04;;;;;;;;;;;;;;;21.63;87.97;94265.28;5054529;28;1083;-59
2022/09/17 12:45:40;;;;;;;;;;;;;;;21.61;87.52;94262.81;5054315;28;1995;-59
2022/09/17 12:48:06;;;;;;;;;;;;;;;21.56;88.09;94265.47;5054433;28;1032;-59
2022/09/17 12:50:32;;;;;;;;;;;;;;;21.59;88.32;94259.53;5053995;28;1671;-59
2022/09/17 12:53:07;;;;;;;;;;;;;;;21.55;88.93;94277.44;5054471;28;991;-59
2022/09/17 12:55:42;;;;;;;;;;;;;;;21.52;89.50;94283.34;5053806;28;1186;-59
2022/09/17 12:58:23;;;;;;;;;;;;;;;21.50;88.98;94287.41;5048350;28;1312;-59
2022/09/17 13:01:08;;;;;;;;;;;;;;;21.49;89.29;94293.91;5034214;28;995;-58
2022/09/17 13:03:34;;;;;;;;;;;;;;;21.50;88.94;94274.63;5033916;28;971;-60
2022/09/17 13:06:10;;;;;;;;;;;;;;;21.47;89.91;94266.13;5033872;28;1910;-60
2022/09/17 13:08:51;;;;;;;;;;;;;;;21.46;90.24;94251.72;5033769;28;1111;-60
2022/09/17 13:11:28;;;;;;;;;;;;;;;21.49;89.67;94236.78;5033922;28;1048;-65
2022/09/17 13:14:00;;;;;;;;;;;;;;;21.51;89.83;94224.59;5033444;28;1044;-60
2022/09/17 13:16:41;;;;;;;;;;;;;;;21.47;89.93;94219.91;5033883;28;1110;-60
2022/09/17 13:19:11;;;;;;;;;;;;;;;21.44;90.09;94199.50;5032774;28;1557;-60
2022/09/17 13:21:42;;;;;;;;;;;;;;;21.49;89.45;94176.97;5034099;28;1579;-60
2022/09/17 13:24:23;;;;;;;;;;;;;;;21.46;89.43;94172.88;5033825;28;1688;-60
2022/09/17 13:26:53;;;;;;;;;;;;;;;21.43;89.86;94157.84;5032298;28;1914;-59
2022/09/17 13:29:39;;;;;;;;;;;;;;;21.46;89.98;94156.56;5033740;28;1697;-59
2022/09/17 13:32:05;;;;;;;;;;;;;;;21.47;90.20;94146.50;5033890;28;974;-60
2022/09/17 13:34:35;;;;;;;;;;;;;;;21.46;88.65;94142.97;5032496;28;1690;-60